Monday, October 23, 2017, 1:20 PM EDT
Back to Local

KHWV, Shirley Brookhaven Airport

Location: Shirley, NY, United States Lat: 40.817
Local Time: 1:20 PM EDT (17:20 GMT) Lon: -72.867
Time Zone: US/Eastern Elev: 82 ft

Show me the last for .
Show Decoded

2017-10-23 12:56 METAR KHWV 231656Z AUTO 16011KT 10SM BKN044 23/18 A3026 RMK AO2 SLP246 T02330183
                 =
2017-10-23 11:56 METAR KHWV 231556Z AUTO 16014KT 10SM CLR 23/18 A3028 RMK AO2 SLP255 T02330178 =
2017-10-23 10:56 METAR KHWV 231456Z AUTO 14010KT 10SM SCT033 23/17 A3030 RMK AO2 SLP261 T02280172
                 58009 =
2017-10-23 09:56 METAR KHWV 231356Z AUTO 14005KT 10SM FEW029 FEW036 21/18 A3032 RMK AO2 SLP268
                 T02110178 =
2017-10-23 08:56 METAR KHWV 231256Z AUTO 08003KT 10SM BKN030 BKN039 15/14 A3034 RMK AO2 SLP273
                 T01500139 =
2017-10-23 08:21 METAR KHWV 231221Z AUTO 00000KT 9SM SCT004 BKN037 14/13 A3034 RMK AO2 T01390128
                 =
2017-10-23 07:56 METAR KHWV 231156Z AUTO 00000KT 5SM BR BKN003 OVC037 13/12 A3033 RMK AO2 SLP270
                 T01280117 10128 20106 58003 =
2017-10-23 07:49 METAR KHWV 231149Z AUTO 00000KT 3SM BR BKN002 OVC037 13/12 A3033 RMK AO2
                 T01280117 =
2017-10-23 07:41 METAR KHWV 231141Z AUTO 00000KT 1 3/4SM BR BKN002 OVC037 12/12 A3033 RMK AO2
                 T01220117 =
2017-10-23 07:31 METAR KHWV 231131Z AUTO 00000KT 3SM BR BKN002 OVC039 12/11 A3033 RMK AO2
                 T01220111 =
2017-10-23 07:03 METAR KHWV 231103Z AUTO 00000KT 9SM FEW002 OVC036 12/11 A3033 RMK AO2 T01170111
                 =
2017-10-23 06:56 METAR KHWV 231056Z AUTO 00000KT 3SM BR BKN002 OVC036 12/11 A3033 RMK AO2 SLP272
                 T01170106 =
2017-10-23 06:51 METAR KHWV 231051Z AUTO 00000KT 3SM BR BKN002 OVC036 12/11 A3034 RMK AO2 =
2017-10-23 06:44 METAR KHWV 231044Z AUTO 00000KT 2 1/2SM BR BKN002 OVC036 11/11 A3034 RMK AO2
                 T01110106 =
2017-10-23 06:24 METAR KHWV 231024Z AUTO 00000KT 3/4SM BR VV002 12/11 A3034 RMK AO2 T01170106 =
2017-10-23 06:22 METAR KHWV 231022Z AUTO 00000KT 1 1/2SM BR OVC003 12/11 A3034 RMK AO2 T01170106
                 =
2017-10-23 05:56 METAR KHWV 230956Z AUTO 00000KT 8SM OVC004 12/11 A3034 RMK AO2 SLP273 T01170106
                 =
2017-10-23 05:52 METAR KHWV 230952Z AUTO 00000KT 2SM BR OVC004 12/11 A3034 RMK AO2 =
2017-10-23 05:49 METAR KHWV 230949Z AUTO 00000KT 3/4SM BR VV004 12/11 A3034 RMK AO2 T01170106 =
2017-10-23 05:42 METAR KHWV 230942Z AUTO 00000KT 1/2SM FG VV005 12/11 A3034 RMK AO2 T01170111 =
2017-10-23 05:28 METAR KHWV 230928Z AUTO 00000KT 1 3/4SM BR OVC006 11/10 A3034 RMK AO2 T01110100
                 =
2017-10-23 04:56 METAR KHWV 230856Z AUTO 00000KT 8SM OVC005 11/10 A3034 RMK AO2 SLP273 T01110100
                 56008 =
2017-10-23 04:51 METAR KHWV 230851Z AUTO 00000KT 8SM OVC005 11/10 A3034 RMK AO2 =
2017-10-23 04:40 METAR KHWV 230840Z AUTO 00000KT 8SM OVC004 11/10 A3034 RMK AO2 T01110100 =
2017-10-23 04:31 METAR KHWV 230831Z AUTO 00000KT 8SM BKN005 11/10 A3034 RMK AO2 T01110100 =
2017-10-23 04:12 METAR KHWV 230812Z AUTO 00000KT 9SM SCT004 11/10 A3034 RMK AO2 T01110100 =
2017-10-23 04:01 METAR KHWV 230801Z AUTO 00000KT 3SM BR BKN004 11/10 A3034 RMK AO2 T01060100 =
2017-10-23 03:56 METAR KHWV 230756Z AUTO 00000KT 1SM BR VV004 11/10 A3034 RMK AO2 SLP274
                 T01110100 =
2017-10-23 03:51 METAR KHWV 230751Z AUTO 00000KT 3/4SM BR VV003 11/10 A3034 RMK AO2 =
2017-10-23 03:34 METAR KHWV 230734Z AUTO 00000KT 1 1/2SM BR OVC002 11/10 A3035 RMK AO2 T01060100
                 =
2017-10-23 03:12 METAR KHWV 230712Z AUTO 00000KT 8SM OVC001 11/10 A3036 RMK AO2 T01110100 =
2017-10-23 03:00 METAR KHWV 230700Z AUTO 00000KT 2SM BR OVC001 11/10 A3036 RMK AO2 VIS 1 1/4V5
                 T01110100 =
2017-10-23 02:56 METAR KHWV 230656Z AUTO 00000KT 3/4SM BR VV001 11/10 A3036 RMK AO2 SLP281
                 T01110100 =
2017-10-23 02:48 METAR KHWV 230648Z AUTO 00000KT 1/4SM FG VV001 11/10 A3036 RMK AO2 T01110100 =
2017-10-23 02:40 METAR KHWV 230640Z AUTO 00000KT 1 1/2SM BR OVC002 11/10 A3036 RMK AO2 T01110100
                 =
2017-10-23 02:28 METAR KHWV 230628Z AUTO 00000KT 10SM BKN002 11/10 A3036 RMK AO2 T01110100 =
2017-10-23 02:20 METAR KHWV 230620Z AUTO 00000KT 10SM SCT004 11/10 A3037 RMK AO2 T01110100 =
2017-10-23 01:56 METAR KHWV 230556Z AUTO 00000KT 10SM CLR 11/10 A3037 RMK AO2 SLP284 T01110100
                 10144 20111 58008 =
2017-10-23 00:56 METAR KHWV 230456Z AUTO 00000KT 10SM CLR 12/10 A3039 RMK AO2 SLP290 T01170100
                 402390083 =
2017-10-22 23:56 METAR KHWV 230356Z AUTO 00000KT 10SM CLR 12/11 A3040 RMK AO2 SLP293 T01220111 =
2017-10-22 22:56 METAR KHWV 230256Z AUTO 00000KT 10SM CLR 13/11 A3040 RMK AO2 SLP292 T01280111
                 50003 =
2017-10-22 21:56 METAR KHWV 230156Z AUTO 00000KT 10SM CLR 13/11 A3040 RMK AO2 SLP294 T01280111 =
2017-10-22 20:56 METAR KHWV 230056Z AUTO 00000KT 10SM CLR 14/12 A3039 RMK AO2 SLP292 T01390117 =
2017-10-22 19:56 METAR KHWV 222356Z AUTO 00000KT 10SM CLR 14/13 A3038 RMK AO2 SLP289 T01440128
                 10239 20144 53001 =
2017-10-22 18:56 METAR KHWV 222256Z AUTO 00000KT 10SM CLR 16/13 A3038 RMK AO2 SLP288 T01610133 =
2017-10-22 17:56 METAR KHWV 222156Z AUTO 17005KT 10SM CLR 19/14 A3038 RMK AO2 SLP287 T01890144 =
2017-10-22 16:56 METAR KHWV 222056Z AUTO 18005KT 10SM CLR 21/14 A3038 RMK AO2 SLP288 T02060144
                 56004 =
2017-10-22 15:56 METAR KHWV 221956Z AUTO 19006KT 10SM CLR 22/12 A3038 RMK AO2 SLP289 T02220122 =
2017-10-22 14:56 METAR KHWV 221856Z AUTO 21008KT 10SM CLR 22/11 A3038 RMK AO2 SLP289 T02220111 =
2017-10-22 13:56 METAR KHWV 221756Z AUTO 18008KT 10SM CLR 23/11 A3040 RMK AO2 SLP293 T02330111
                 10239 20089 58008 =

Support USWX by starting your Amazon purchase here.